Portada
METAR-TAF:

METAR-TAF

Aeroports :

Aeroport Internacional de Tabarka

Tabarka, Tunísia

latitud: 36-57N, longitud: 008-45E, altitud: 20 m

Observació

L'informe es va fer fa 1 hora i 20 minuts, a les 00:30 UTC
Vent 6 kt del Est
Temperatura 5°C
Humitat 100%
Pressió 1023 hPa
Visibilitat 10 km o més
Escasses núvols a una alçada de 2000 ft

METAR: DTKA 250030Z 08006KT 9999 FEW020 05/05 Q1023 NOSIG

Hora: 02:50 (01:50 UTC)

Pronòstic

L'informe es va fer fa 1 hora i 50 minuts, a les 00:00 UTC
Pronòstic vàlid del 25 a les 01 UTC al 25 a les 10 UTC
Vent 3 kt amb direcció variable
Visibilitat 10 km o més
Escasses núvols a una alçada de 2000 ft

TAF: DTKA 250000Z 2501/2510 VRB03KT 9999 FEW020

Observacions i pronòstics meteorològics de més de 4000 aeroports (METAR i TAF).

Les estacions disponibles són els punts grocs i vermells al mapa.

Posi el ratolí al punt desitjat per veure el nom de l'estació.

Feu clic per veure les observacions i els pronòstics meteorològics.

Per canviar el mapa: feu clic els botons verds amb una creu de color negre per apropar; al botó verd amb un guió per allunyar la imatge; o en les fletxes verdes per a mapes adjacents.


METAR-TAF: